Time,TemperatureF,DewpointF,PressureIn,WindDirection,WindDirectionDegrees,WindSpeedMPH,WindSpeedGustMPH,Humidity,HourlyPrecipIn,Conditions,Clouds,dailyrainin,SoftwareType,DateUTC
2013-02-19 00:05:00,41.3,40.0,29.98,North,352,0.0,0.0,94,0.00,,,0.00,weatherlink.com 1.10,2013-02-19 08:05:00,
2013-02-19 00:20:00,41.3,40.0,29.98,East,79,0.0,0.0,94,0.00,,,0.00,weatherlink.com 1.10,2013-02-19 08:20:00,
2013-02-19 00:35:00,41.3,40.0,29.98,ENE,77,0.0,0.0,94,0.00,,,0.00,weatherlink.com 1.10,2013-02-19 08:35:00,
2013-02-19 00:50:00,41.3,40.0,29.98,ENE,77,0.0,0.0,94,0.00,,,0.00,weatherlink.com 1.10,2013-02-19 08:50:00,
2013-02-19 01:05:00,41.3,40.0,29.98,ENE,78,0.0,0.0,94,0.00,,,0.00,weatherlink.com 1.10,2013-02-19 09:05:00,
2013-02-19 01:20:00,41.3,40.0,29.98,East,79,0.0,0.0,95,0.00,,,0.00,weatherlink.com 1.10,2013-02-19 09:20:00,
2013-02-19 01:35:00,41.2,40.0,29.97,ENE,78,0.0,0.0,94,0.00,,,0.00,weatherlink.com 1.10,2013-02-19 09:35:00,
2013-02-19 01:50:00,40.8,39.0,29.97,East,79,0.0,0.0,94,0.00,,,0.00,weatherlink.com 1.10,2013-02-19 09:50:00,
2013-02-19 02:05:00,40.5,39.0,29.97,East,79,0.0,0.0,94,0.00,,,0.00,weatherlink.com 1.10,2013-02-19 10:05:00,
2013-02-19 02:20:00,40.3,39.0,29.97,East,79,0.0,0.0,95,0.00,,,0.00,weatherlink.com 1.10,2013-02-19 10:20:00,
2013-02-19 02:35:00,40.1,39.0,29.96,East,90,0.0,0.0,95,0.00,,,0.00,weatherlink.com 1.10,2013-02-19 10:35:00,
2013-02-19 02:50:00,40.1,39.0,29.95,East,91,0.0,0.0,95,0.00,,,0.00,weatherlink.com 1.10,2013-02-19 10:50:00,
2013-02-19 03:06:00,40.1,39.0,29.95,East,91,0.0,0.0,95,0.00,,,0.00,weatherlink.com 1.10,2013-02-19 11:06:00,
2013-02-19 03:20:00,40.1,39.0,29.94,East,91,0.0,0.0,95,0.00,,,0.00,weatherlink.com 1.10,2013-02-19 11:20:00,
2013-02-19 03:35:00,40.1,39.0,29.94,East,91,0.0,0.0,95,0.00,,,0.00,weatherlink.com 1.10,2013-02-19 11:35:00,
2013-02-19 03:50:00,40.1,39.0,29.95,East,90,0.0,0.0,95,0.00,,,0.00,weatherlink.com 1.10,2013-02-19 11:50:00,
2013-02-19 04:05:00,40.2,39.0,29.94,East,91,0.0,0.0,95,0.00,,,0.00,weatherlink.com 1.10,2013-02-19 12:05:00,
2013-02-19 04:20:00,40.0,39.0,29.94,East,90,0.0,0.0,95,0.00,,,0.00,weatherlink.com 1.10,2013-02-19 12:20:00,
2013-02-19 04:36:00,39.6,38.0,29.94,East,90,0.0,0.0,95,0.00,,,0.00,weatherlink.com 1.10,2013-02-19 12:36:00,
2013-02-19 04:50:00,39.1,38.0,29.94,East,90,0.0,0.0,95,0.00,,,0.00,weatherlink.com 1.10,2013-02-19 12:50:00,
2013-02-19 05:05:00,38.8,38.0,29.94,East,91,0.0,0.0,95,0.00,,,0.00,weatherlink.com 1.10,2013-02-19 13:05:00,
2013-02-19 05:20:00,38.8,38.0,29.94,East,90,0.0,0.0,95,0.00,,,0.00,weatherlink.com 1.10,2013-02-19 13:20:00,
2013-02-19 05:36:00,38.8,38.0,29.93,East,91,0.0,0.0,96,0.00,,,0.00,weatherlink.com 1.10,2013-02-19 13:36:00,
2013-02-19 05:50:00,38.9,38.0,29.93,East,91,0.0,0.0,96,0.00,,,0.00,weatherlink.com 1.10,2013-02-19 13:50:00,
2013-02-19 06:06:00,38.9,38.0,29.93,East,91,0.0,0.0,96,0.00,,,0.00,weatherlink.com 1.10,2013-02-19 14:06:00,
2013-02-19 06:20:00,38.7,38.0,29.93,East,91,0.0,0.0,96,0.00,,,0.00,weatherlink.com 1.10,2013-02-19 14:20:00,
2013-02-19 06:36:00,38.4,37.0,29.92,East,91,0.0,0.0,95,0.00,,,0.00,weatherlink.com 1.10,2013-02-19 14:36:00,
2013-02-19 06:51:00,38.3,37.0,29.91,East,91,0.0,0.0,96,0.00,,,0.00,weatherlink.com 1.10,2013-02-19 14:51:00,
2013-02-19 07:06:00,38.4,37.0,29.91,East,90,0.0,0.0,96,0.00,,,0.00,weatherlink.com 1.10,2013-02-19 15:06:00,
2013-02-19 07:21:00,38.6,38.0,29.91,East,91,0.0,0.0,96,0.00,,,0.00,weatherlink.com 1.10,2013-02-19 15:21:00,
2013-02-19 07:36:00,38.8,38.0,29.90,East,91,0.0,0.0,96,0.00,,,0.00,weatherlink.com 1.10,2013-02-19 15:36:00,
2013-02-19 07:51:00,39.0,38.0,29.90,East,91,0.0,0.0,96,0.00,,,0.00,weatherlink.com 1.10,2013-02-19 15:51:00,
2013-02-19 08:06:00,39.6,39.0,29.89,East,91,0.0,0.0,97,0.00,,,0.00,weatherlink.com 1.10,2013-02-19 16:06:00,
2013-02-19 08:21:00,40.3,40.0,29.89,ENE,77,0.0,2.0,97,0.00,,,0.00,weatherlink.com 1.10,2013-02-19 16:21:00,
2013-02-19 08:36:00,40.7,40.0,29.89,ENE,77,0.0,0.0,97,0.00,,,0.00,weatherlink.com 1.10,2013-02-19 16:36:00,
2013-02-19 08:51:00,41.1,40.0,29.88,NNE,20,0.0,1.0,97,0.00,,,0.00,weatherlink.com 1.10,2013-02-19 16:51:00,
2013-02-19 09:24:00,41.7,41.0,29.87,NNE,19,0.0,0.0,97,0.00,,,0.00,weatherlink.com 1.10,2013-02-19 17:24:00,
2013-02-19 09:36:00,42.1,41.0,29.86,NNE,18,0.0,0.0,97,0.00,,,0.00,weatherlink.com 1.10,2013-02-19 17:36:00,
2013-02-19 09:51:00,42.4,42.0,29.86,NNE,19,0.0,0.0,97,0.00,,,0.00,weatherlink.com 1.10,2013-02-19 17:51:00,
2013-02-19 10:06:00,42.8,42.0,29.85,NNE,18,0.0,1.0,97,0.00,,,0.00,weatherlink.com 1.10,2013-02-19 18:06:00,
2013-02-19 10:21:00,43.4,43.0,29.84,NNE,18,0.0,0.0,97,0.00,,,0.00,weatherlink.com 1.10,2013-02-19 18:21:00,
2013-02-19 10:36:00,43.9,43.0,29.83,NNE,18,0.0,1.0,97,0.00,,,0.00,weatherlink.com 1.10,2013-02-19 18:36:00,
2013-02-19 10:51:00,44.1,43.0,29.82,NNW,328,0.0,2.0,97,0.00,,,0.00,weatherlink.com 1.10,2013-02-19 18:51:00,
2013-02-19 11:06:00,43.9,43.0,29.82,NNE,27,0.0,1.0,97,0.00,,,0.00,weatherlink.com 1.10,2013-02-19 19:06:00,
2013-02-19 11:22:00,43.5,43.0,29.82,ENE,64,2.0,4.0,96,0.02,,,0.02,weatherlink.com 1.10,2013-02-19 19:22:00,
2013-02-19 11:36:00,42.9,42.0,29.82,NNE,16,0.0,3.0,96,0.05,,,0.05,weatherlink.com 1.10,2013-02-19 19:36:00,
2013-02-19 11:51:00,41.5,40.0,29.82,West,277,1.0,2.0,95,0.09,,,0.09,weatherlink.com 1.10,2013-02-19 19:51:00,
2013-02-19 12:06:00,41.2,40.0,29.82,WSW,258,1.0,1.0,96,0.10,,,0.10,weatherlink.com 1.10,2013-02-19 20:06:00,
2013-02-19 12:22:00,41.3,40.0,29.81,SSW,204,0.0,2.0,96,0.09,,,0.11,weatherlink.com 1.10,2013-02-19 20:22:00,
2013-02-19 12:36:00,41.3,40.0,29.80,SSW,212,0.0,2.0,96,0.06,,,0.12,weatherlink.com 1.10,2013-02-19 20:36:00,
2013-02-19 12:51:00,41.4,40.0,29.79,South,184,0.0,1.0,96,0.04,,,0.13,weatherlink.com 1.10,2013-02-19 20:51:00,
2013-02-19 13:06:00,41.6,40.0,29.78,West,273,0.0,3.0,95,0.03,,,0.13,weatherlink.com 1.10,2013-02-19 21:06:00,
2013-02-19 13:21:00,42.0,41.0,29.78,West,274,3.0,7.0,95,0.03,,,0.14,weatherlink.com 1.10,2013-02-19 21:21:00,
2013-02-19 13:37:00,40.6,39.0,29.78,SW,223,0.0,10.0,93,0.03,,,0.15,weatherlink.com 1.10,2013-02-19 21:37:00,
2013-02-19 13:52:00,40.6,39.0,29.78,WSW,243,1.0,8.0,94,0.02,,,0.15,weatherlink.com 1.10,2013-02-19 21:52:00,
2013-02-19 14:07:00,40.8,39.0,29.78,NW,307,4.0,10.0,93,0.02,,,0.15,weatherlink.com 1.10,2013-02-19 22:07:00,
2013-02-19 14:22:00,40.7,39.0,29.78,West,260,1.0,9.0,92,0.01,,,0.15,weatherlink.com 1.10,2013-02-19 22:22:00,
2013-02-19 14:37:00,40.7,39.0,29.78,SE,129,1.0,6.0,92,0.00,,,0.15,weatherlink.com 1.10,2013-02-19 22:37:00,
2013-02-19 14:52:00,41.3,40.0,29.77,WSW,240,2.0,2.0,94,0.00,,,0.15,weatherlink.com 1.10,2013-02-19 22:52:00,
2013-02-19 15:07:00,41.8,40.0,29.77,SSW,212,1.0,4.0,93,0.00,,,0.15,weatherlink.com 1.10,2013-02-19 23:07:00,
2013-02-19 15:22:00,41.6,40.0,29.76,SW,228,2.0,5.0,92,0.00,,,0.15,weatherlink.com 1.10,2013-02-19 23:22:00,
2013-02-19 15:37:00,40.8,39.0,29.77,SW,221,0.0,2.0,94,0.00,,,0.15,weatherlink.com 1.10,2013-02-19 23:37:00,
2013-02-19 15:52:00,39.5,37.0,29.78,SW,226,1.0,11.0,92,0.02,,,0.17,weatherlink.com 1.10,2013-02-19 23:52:00,
2013-02-19 16:22:00,38.9,37.0,29.77,SW,217,1.0,2.0,94,0.02,,,0.17,weatherlink.com 1.10,2013-02-20 00:22:00,
2013-02-19 16:37:00,38.8,38.0,29.76,SSW,204,3.0,3.0,95,0.02,,,0.17,weatherlink.com 1.10,2013-02-20 00:37:00,
2013-02-19 16:52:00,38.9,38.0,29.76,SW,214,0.0,2.0,95,0.00,,,0.17,weatherlink.com 1.10,2013-02-20 00:52:00,
2013-02-19 17:07:00,38.7,37.0,29.76,WSW,253,1.0,5.0,93,0.00,,,0.17,weatherlink.com 1.10,2013-02-20 01:07:00,
2013-02-19 17:22:00,38.4,37.0,29.76,South,174,2.0,3.0,94,0.00,,,0.17,weatherlink.com 1.10,2013-02-20 01:22:00,
2013-02-19 17:37:00,38.1,37.0,29.75,SSW,201,0.0,2.0,94,0.00,,,0.17,weatherlink.com 1.10,2013-02-20 01:37:00,
2013-02-19 17:52:00,37.5,36.0,29.76,SSE,160,0.0,1.0,94,0.00,,,0.17,weatherlink.com 1.10,2013-02-20 01:52:00,
2013-02-19 18:07:00,37.5,36.0,29.76,SSE,148,2.0,5.0,94,0.00,,,0.17,weatherlink.com 1.10,2013-02-20 02:07:00,
2013-02-19 18:22:00,37.4,36.0,29.76,SSW,197,1.0,2.0,94,0.00,,,0.17,weatherlink.com 1.10,2013-02-20 02:22:00,
2013-02-19 18:37:00,36.9,35.0,29.77,South,190,0.0,1.0,94,0.00,,,0.17,weatherlink.com 1.10,2013-02-20 02:37:00,
2013-02-19 18:52:00,36.5,35.0,29.76,ESE,120,0.0,1.0,95,0.00,,,0.17,weatherlink.com 1.10,2013-02-20 02:52:00,
2013-02-19 19:07:00,36.3,35.0,29.76,SSE,149,0.0,1.0,95,0.00,,,0.17,weatherlink.com 1.10,2013-02-20 03:07:00,
2013-02-19 19:22:00,36.1,35.0,29.76,SW,214,0.0,2.0,96,0.00,,,0.17,weatherlink.com 1.10,2013-02-20 03:22:00,
2013-02-19 19:37:00,36.0,35.0,29.76,SSW,204,0.0,0.0,96,0.00,,,0.17,weatherlink.com 1.10,2013-02-20 03:37:00,
2013-02-19 19:52:00,35.6,35.0,29.76,SE,125,0.0,1.0,96,0.00,,,0.17,weatherlink.com 1.10,2013-02-20 03:52:00,
2013-02-19 20:07:00,35.7,35.0,29.77,East,91,1.0,2.0,96,0.00,,,0.17,weatherlink.com 1.10,2013-02-20 04:07:00,
2013-02-19 20:22:00,35.7,35.0,29.77,SE,143,0.0,3.0,96,0.00,,,0.17,weatherlink.com 1.10,2013-02-20 04:22:00,
2013-02-19 20:37:00,35.5,35.0,29.77,SE,139,2.0,2.0,96,0.00,,,0.17,weatherlink.com 1.10,2013-02-20 04:37:00,
2013-02-19 20:52:00,35.8,35.0,29.77,SSE,150,0.0,1.0,97,0.00,,,0.17,weatherlink.com 1.10,2013-02-20 04:52:00,
2013-02-19 21:07:00,35.7,35.0,29.78,SSE,148,0.0,2.0,96,0.00,,,0.17,weatherlink.com 1.10,2013-02-20 05:07:00,
2013-02-19 21:22:00,35.3,34.0,29.78,SSE,148,0.0,1.0,96,0.00,,,0.17,weatherlink.com 1.10,2013-02-20 05:22:00,
2013-02-19 21:38:00,34.8,34.0,29.79,SSE,148,0.0,0.0,96,0.00,,,0.17,weatherlink.com 1.10,2013-02-20 05:38:00,
2013-02-19 21:52:00,34.4,33.0,29.79,SE,138,0.0,1.0,96,0.00,,,0.17,weatherlink.com 1.10,2013-02-20 05:52:00,
2013-02-19 22:07:00,34.0,33.0,29.79,SE,138,0.0,1.0,96,0.00,,,0.17,weatherlink.com 1.10,2013-02-20 06:07:00,
2013-02-19 22:22:00,33.6,33.0,29.79,SE,138,0.0,0.0,96,0.01,,,0.18,weatherlink.com 1.10,2013-02-20 06:22:00,
2013-02-19 22:37:00,33.3,32.0,29.79,SE,138,0.0,0.0,96,0.01,,,0.18,weatherlink.com 1.10,2013-02-20 06:37:00,
2013-02-19 22:53:00,32.8,32.0,29.80,SE,138,0.0,0.0,96,0.01,,,0.18,weatherlink.com 1.10,2013-02-20 06:53:00,
2013-02-19 23:07:00,32.4,31.0,29.80,SE,139,0.0,0.0,96,0.01,,,0.18,weatherlink.com 1.10,2013-02-20 07:07:00,
2013-02-19 23:23:00,32.1,31.0,29.80,ESE,110,0.0,1.0,96,0.00,,,0.18,weatherlink.com 1.10,2013-02-20 07:23:00,
2013-02-19 23:37:00,31.9,31.0,29.81,ESE,110,0.0,1.0,96,0.00,,,0.18,weatherlink.com 1.10,2013-02-20 07:37:00,
2013-02-19 23:52:00,32.4,32.0,29.81,South,173,1.0,1.0,97,0.00,,,0.18,weatherlink.com 1.10,2013-02-20 07:52:00,